Terminal Aerodrome Forecast
Issued by NWS North Platte, NE

Home | Current Version | Previous Version | Graphics & Text | Print | Product List | Glossary On
Versions: 1 2 3 4 5 6 7 8 9 10 11 12 13 14 15 16 17 18 19 20 21 22 23 24 25 26
801
FTUS43 KLBF 241327 AAA
TAFVTN
TAF AMD
KVTN 241327Z 2413/2512 33008KT P6SM -SHRA FEW012 OVC025
     FM241800 33010KT P6SM VCSH OVC012
     FM250300 35009KT P6SM VCSH OVC008
     FM250600 35009KT P6SM OVC005=

USA.gov is the U.S. government's official web portal to all federal, state and local government web resources and services.